createdAt,value
2017-08-20T00:01:08.483Z,3.80
2017-08-20T00:03:35.934Z,6.67
2017-08-20T00:06:03.393Z,6.20
2017-08-20T00:08:30.849Z,5.40
2017-08-20T00:10:58.311Z,5.63
2017-08-20T00:13:25.764Z,4.50
2017-08-20T00:15:53.346Z,3.67
2017-08-20T00:18:20.802Z,5.83
2017-08-20T00:20:48.258Z,4.10
2017-08-20T00:23:15.730Z,7.10
2017-08-20T00:25:43.978Z,4.60
2017-08-20T00:28:11.437Z,4.97
2017-08-20T00:30:38.893Z,3.60
2017-08-20T00:33:06.453Z,3.07
2017-08-20T00:35:33.933Z,5.77
2017-08-20T00:38:01.375Z,3.40
2017-08-20T00:40:28.935Z,4.00
2017-08-20T00:42:56.390Z,3.73
2017-08-20T00:45:23.945Z,4.30
2017-08-20T00:47:51.502Z,5.73
2017-08-20T00:50:18.959Z,4.57
2017-08-20T00:52:46.512Z,4.30
2017-08-20T00:55:13.977Z,4.83
2017-08-20T00:57:41.446Z,4.17
2017-08-20T01:00:08.902Z,3.00
2017-08-20T01:02:36.357Z,5.60
2017-08-20T01:05:03.814Z,5.00
2017-08-20T01:07:31.358Z,5.30
2017-08-20T01:09:58.827Z,3.73
2017-08-20T01:12:26.285Z,4.70
2017-08-20T01:14:53.738Z,3.10
2017-08-20T01:17:21.190Z,7.50
2017-08-20T01:19:48.733Z,5.53
2017-08-20T01:22:16.199Z,5.70
2017-08-20T01:24:43.655Z,2.67
2017-08-20T01:27:11.216Z,4.20
2017-08-20T01:29:38.670Z,2.60
2017-08-20T01:32:06.140Z,5.40
2017-08-20T01:34:33.683Z,6.60
2017-08-20T01:37:01.139Z,4.30
2017-08-20T01:39:28.693Z,6.47
2017-08-20T01:41:56.259Z,2.70
2017-08-20T01:44:23.715Z,6.63
2017-08-20T01:46:51.171Z,2.53
2017-08-20T01:49:18.635Z,3.60
2017-08-20T01:51:46.082Z,5.50
2017-08-20T01:54:13.642Z,4.53
2017-08-20T01:56:41.095Z,9.17
2017-08-20T01:59:08.657Z,4.60
2017-08-20T02:01:36.209Z,4.40
2017-08-20T02:04:03.675Z,9.60
2017-08-20T02:06:31.127Z,6.30
2017-08-20T02:08:58.582Z,4.27
2017-08-20T02:11:26.141Z,4.07
2017-08-20T02:13:53.597Z,7.77
2017-08-20T02:16:21.163Z,5.53
2017-08-20T02:18:48.722Z,4.90
2017-08-20T02:21:16.170Z,4.17
2017-08-20T02:23:43.620Z,4.77
2017-08-20T02:26:11.095Z,3.97
2017-08-20T02:28:38.537Z,4.10
2017-08-20T02:31:06.100Z,3.23
2017-08-20T02:33:33.553Z,8.47
2017-08-20T02:36:01.027Z,4.80
2017-08-20T02:38:28.482Z,5.33
2017-08-20T02:40:55.945Z,2.63
2017-08-20T02:43:23.494Z,2.97
2017-08-20T02:45:50.974Z,4.07
2017-08-20T02:48:18.502Z,5.33
2017-08-20T02:50:45.958Z,2.60
2017-08-20T02:53:13.409Z,6.83
2017-08-20T02:55:40.969Z,4.20
2017-08-20T02:58:08.425Z,2.50
2017-08-20T03:00:35.882Z,6.30
2017-08-20T03:03:03.334Z,4.23
2017-08-20T03:05:30.796Z,2.97
2017-08-20T03:07:58.366Z,3.20
2017-08-20T03:10:25.842Z,4.10
2017-08-20T03:12:54.078Z,10.03
2017-08-20T03:15:21.532Z,2.50
2017-08-20T03:17:49.002Z,4.00
2017-08-20T03:20:16.448Z,4.73
2017-08-20T03:22:43.908Z,7.17
2017-08-20T03:25:11.363Z,5.97
2017-08-20T03:27:38.931Z,5.03
2017-08-20T03:30:06.410Z,4.70
2017-08-20T03:32:34.652Z,3.47
2017-08-20T03:35:02.127Z,12.53
2017-08-20T03:37:29.593Z,7.27
2017-08-20T03:39:57.857Z,9.00
2017-08-20T03:42:25.313Z,3.03
2017-08-20T03:44:52.861Z,3.73
2017-08-20T03:47:20.331Z,7.07
2017-08-20T03:49:47.773Z,4.30
2017-08-20T03:52:15.232Z,8.13
2017-08-20T03:54:42.789Z,5.70
2017-08-20T03:57:10.269Z,6.63
2017-08-20T03:59:38.538Z,4.87
2017-08-20T04:02:05.986Z,4.53
2017-08-20T04:04:33.445Z,7.67
2017-08-20T04:07:00.998Z,4.67
2017-08-20T04:09:28.462Z,4.70
2017-08-20T04:11:55.917Z,3.33
2017-08-20T04:14:23.373Z,5.73
2017-08-20T04:16:50.838Z,4.43
2017-08-20T04:19:18.290Z,4.17
2017-08-20T04:21:45.741Z,4.20
2017-08-20T04:24:13.198Z,3.20
2017-08-20T04:26:40.650Z,5.20
2017-08-20T04:29:08.123Z,5.97
2017-08-20T04:31:36.449Z,4.80
2017-08-20T04:34:03.937Z,4.83
2017-08-20T04:36:31.494Z,6.20
2017-08-20T04:38:59.061Z,9.20
2017-08-20T04:41:26.614Z,2.50
2017-08-20T04:43:54.094Z,4.60
2017-08-20T04:46:22.308Z,2.30
2017-08-20T04:48:49.771Z,4.70
2017-08-20T04:51:17.233Z,6.53
2017-08-20T04:53:44.686Z,4.40
2017-08-20T04:56:12.168Z,4.80
2017-08-20T04:58:39.725Z,4.83
2017-08-20T05:01:07.286Z,1.87
2017-08-20T05:03:34.841Z,8.20
2017-08-20T05:06:02.302Z,9.80
2017-08-20T05:08:29.758Z,5.70
2017-08-20T05:10:57.214Z,3.03
2017-08-20T05:13:24.665Z,2.93
2017-08-20T05:15:52.234Z,3.90
2017-08-20T05:18:19.685Z,4.77
2017-08-20T05:20:47.247Z,4.90
2017-08-20T05:23:14.686Z,4.47
2017-08-20T05:25:43.565Z,3.27
2017-08-20T05:28:11.022Z,2.80
2017-08-20T05:30:38.477Z,2.70
2017-08-20T05:33:05.961Z,2.80
2017-08-20T05:35:33.418Z,5.50
2017-08-20T05:38:00.870Z,4.80
2017-08-20T05:40:28.335Z,2.90
2017-08-20T05:42:55.789Z,4.10
2017-08-20T05:45:23.246Z,2.30
2017-08-20T05:47:50.707Z,4.07
2017-08-20T05:50:18.164Z,5.07
2017-08-20T05:52:45.633Z,2.43
2017-08-20T05:55:13.859Z,4.33
2017-08-20T05:57:41.319Z,2.50
2017-08-20T06:00:08.773Z,3.63
2017-08-20T06:02:36.230Z,2.30
2017-08-20T06:05:03.677Z,3.00
2017-08-20T06:07:31.130Z,3.83
2017-08-20T06:09:58.643Z,2.07
2017-08-20T06:12:26.102Z,3.07
2017-08-20T06:14:53.554Z,3.30
2017-08-20T06:17:21.008Z,3.50
2017-08-20T06:19:48.453Z,2.63
2017-08-20T06:22:16.014Z,2.00
2017-08-20T06:24:43.473Z,2.93
2017-08-20T06:27:10.929Z,9.00
2017-08-20T06:29:38.493Z,3.70
2017-08-20T06:32:05.969Z,5.47
2017-08-20T06:34:34.190Z,6.00
2017-08-20T06:37:01.637Z,4.10
2017-08-20T06:39:29.952Z,5.80
2017-08-20T06:41:57.396Z,4.80
2017-08-20T06:44:24.858Z,3.07
2017-08-20T06:46:52.311Z,1.83
2017-08-20T06:49:19.769Z,2.07
2017-08-20T06:51:47.216Z,3.33
2017-08-20T06:54:14.675Z,4.53
2017-08-20T06:56:42.122Z,2.63
2017-08-20T06:59:09.616Z,5.43
2017-08-20T07:01:37.068Z,3.60
2017-08-20T07:04:04.542Z,9.67
2017-08-20T07:06:31.990Z,2.90
2017-08-20T07:08:59.533Z,5.00
2017-08-20T07:11:26.990Z,5.53
2017-08-20T07:13:54.450Z,2.13
2017-08-20T07:16:22.014Z,3.20
2017-08-20T07:18:49.472Z,2.10
2017-08-20T07:21:17.626Z,5.43
2017-08-20T07:23:45.193Z,1.50
2017-08-20T07:26:12.651Z,4.50
2017-08-20T07:28:40.215Z,6.50
2017-08-20T07:31:07.662Z,5.50
2017-08-20T07:33:35.124Z,2.93
2017-08-20T07:36:02.594Z,4.13
2017-08-20T07:38:30.045Z,5.57
2017-08-20T07:40:57.604Z,6.03
2017-08-20T07:43:25.071Z,5.23
2017-08-20T07:45:53.540Z,5.97
2017-08-20T07:48:21.953Z,2.87
2017-08-20T07:50:49.411Z,7.77
2017-08-20T07:53:16.856Z,7.67
2017-08-20T07:55:45.085Z,1.97
2017-08-20T07:58:12.542Z,3.47
2017-08-20T08:00:40.009Z,5.03
2017-08-20T08:03:07.445Z,4.33
2017-08-20T08:05:34.926Z,1.87
2017-08-20T08:08:03.233Z,4.30
2017-08-20T08:10:31.457Z,4.43
2017-08-20T08:12:58.905Z,4.50
2017-08-20T08:15:26.379Z,5.80
2017-08-20T08:17:54.813Z,3.13
2017-08-20T08:20:22.328Z,6.70
2017-08-20T08:22:49.825Z,4.90
2017-08-20T08:25:18.033Z,6.03
2017-08-20T08:27:45.502Z,4.00
2017-08-20T08:30:12.961Z,3.83
2017-08-20T08:32:40.417Z,3.00
2017-08-20T08:35:07.873Z,6.33
2017-08-20T08:37:35.346Z,4.10
2017-08-20T08:40:02.806Z,5.03
2017-08-20T08:42:30.269Z,5.00
2017-08-20T08:44:57.828Z,5.60
2017-08-20T08:47:25.346Z,3.53
2017-08-20T08:49:52.840Z,6.43
2017-08-20T08:52:20.303Z,4.10
2017-08-20T08:54:47.986Z,2.00
2017-08-20T08:57:15.527Z,2.10
2017-08-20T08:59:43.082Z,3.23
2017-08-20T09:02:10.639Z,3.53
2017-08-20T09:04:39.021Z,4.87
2017-08-20T09:07:06.570Z,5.23
2017-08-20T09:09:34.026Z,4.20
2017-08-20T09:12:01.586Z,4.03
2017-08-20T09:14:29.043Z,3.23
2017-08-20T09:16:56.592Z,4.83
2017-08-20T09:19:24.153Z,2.97
2017-08-20T09:21:51.605Z,2.20
2017-08-20T09:24:19.057Z,3.80
2017-08-20T09:26:46.513Z,4.40
2017-08-20T09:29:13.969Z,7.10
2017-08-20T09:31:41.429Z,5.17
2017-08-20T09:34:08.886Z,2.97
2017-08-20T09:36:36.465Z,3.70
2017-08-20T09:39:03.917Z,2.93
2017-08-20T09:41:31.366Z,1.57
2017-08-20T09:43:58.938Z,5.73
2017-08-20T09:46:26.395Z,5.43
2017-08-20T09:48:53.849Z,4.93
2017-08-20T09:51:21.305Z,3.70
2017-08-20T09:53:48.858Z,2.07
2017-08-20T09:56:16.314Z,4.70
2017-08-20T09:58:43.773Z,4.33
2017-08-20T10:01:11.230Z,3.63
2017-08-20T10:03:38.685Z,6.63
2017-08-20T10:06:06.233Z,2.30
2017-08-20T10:08:33.694Z,3.57
2017-08-20T10:11:01.145Z,6.40
2017-08-20T10:13:28.697Z,2.37
2017-08-20T10:15:56.157Z,3.60
2017-08-20T10:18:23.597Z,2.97
2017-08-20T10:20:51.081Z,12.23
2017-08-20T10:23:18.533Z,2.43
2017-08-20T10:25:45.998Z,1.83
2017-08-20T10:28:13.547Z,6.13
2017-08-20T10:30:41.009Z,4.33
2017-08-20T10:33:08.461Z,2.83
2017-08-20T10:35:35.913Z,4.10
2017-08-20T10:38:03.363Z,3.20
2017-08-20T10:40:30.817Z,2.73
2017-08-20T10:42:58.262Z,3.03
2017-08-20T10:45:25.717Z,5.33
2017-08-20T10:47:53.170Z,4.17
2017-08-20T10:50:20.647Z,2.93
2017-08-20T10:52:48.218Z,4.97
2017-08-20T10:55:15.673Z,3.33
2017-08-20T10:57:43.128Z,2.07
2017-08-20T11:00:10.593Z,4.70
2017-08-20T11:02:38.061Z,5.70
2017-08-20T11:05:05.508Z,3.67
2017-08-20T11:07:33.065Z,5.00
2017-08-20T11:10:00.614Z,3.77
2017-08-20T11:12:28.179Z,2.33
2017-08-20T11:14:55.634Z,1.80
2017-08-20T11:17:23.085Z,7.90
2017-08-20T11:19:50.534Z,4.60
2017-08-20T11:22:17.994Z,3.50
2017-08-20T11:24:45.449Z,3.13
2017-08-20T11:27:12.914Z,5.43
2017-08-20T11:29:40.362Z,3.10
2017-08-20T11:32:07.821Z,2.43
2017-08-20T11:34:35.287Z,3.43
2017-08-20T11:37:02.766Z,3.87
2017-08-20T11:39:31.031Z,2.63
2017-08-20T11:41:58.474Z,2.43
2017-08-20T11:44:25.934Z,1.90
2017-08-20T11:46:53.395Z,6.40
2017-08-20T11:49:20.849Z,3.83
2017-08-20T11:51:48.310Z,2.20
2017-08-20T11:54:15.765Z,2.83
2017-08-20T11:56:43.222Z,3.93
2017-08-20T11:59:10.677Z,2.43
2017-08-20T12:01:38.121Z,7.10
2017-08-20T12:04:05.682Z,3.83
2017-08-20T12:06:33.253Z,3.93
2017-08-20T12:09:00.709Z,4.07
2017-08-20T12:11:28.164Z,1.83
2017-08-20T12:13:56.399Z,3.33
2017-08-20T12:16:23.880Z,4.37
2017-08-20T12:18:51.359Z,2.53
2017-08-20T12:21:18.806Z,3.83
2017-08-20T12:23:46.262Z,3.07
2017-08-20T12:26:13.717Z,3.93
2017-08-20T12:28:41.174Z,2.03
2017-08-20T12:31:08.629Z,3.23
2017-08-20T12:33:36.074Z,3.97
2017-08-20T12:36:03.530Z,4.57
2017-08-20T12:38:30.978Z,5.27
2017-08-20T12:40:58.446Z,3.47
2017-08-20T12:43:25.899Z,5.57
2017-08-20T12:45:53.461Z,4.23
2017-08-20T12:48:20.910Z,4.53
2017-08-20T12:50:48.357Z,7.33
2017-08-20T12:53:15.842Z,4.57
2017-08-20T12:55:43.298Z,6.97
2017-08-20T12:58:10.760Z,2.90
2017-08-20T13:00:38.215Z,4.17
2017-08-20T13:03:05.657Z,3.30
2017-08-20T13:05:33.127Z,4.67
2017-08-20T13:08:00.584Z,1.60
2017-08-20T13:10:28.037Z,5.00
2017-08-20T13:12:55.481Z,2.20
2017-08-20T13:15:23.041Z,6.10
2017-08-20T13:17:50.602Z,2.00
2017-08-20T13:20:18.050Z,3.10
2017-08-20T13:22:45.505Z,2.13
2017-08-20T13:25:12.953Z,4.77
2017-08-20T13:27:40.402Z,2.43
2017-08-20T13:30:07.880Z,3.13
2017-08-20T13:32:35.448Z,2.93
2017-08-20T13:35:02.907Z,4.43
2017-08-20T13:37:30.454Z,2.63
2017-08-20T13:39:57.905Z,2.37
2017-08-20T13:42:25.358Z,6.10
2017-08-20T13:44:52.833Z,3.00
2017-08-20T13:47:20.288Z,3.20
2017-08-20T13:49:47.724Z,4.70
2017-08-20T13:52:15.187Z,3.73
2017-08-20T13:54:42.629Z,4.70
2017-08-20T13:57:10.090Z,2.27
2017-08-20T13:59:37.566Z,2.80
2017-08-20T14:02:05.121Z,3.30
2017-08-20T14:04:32.585Z,3.90
2017-08-20T14:07:00.058Z,2.80
2017-08-20T14:09:28.319Z,2.93
2017-08-20T14:11:55.769Z,4.83
2017-08-20T14:14:23.228Z,2.13
2017-08-20T14:16:50.677Z,3.47
2017-08-20T14:19:18.134Z,2.00
2017-08-20T14:21:45.577Z,1.40
2017-08-20T14:24:13.058Z,5.13
2017-08-20T14:26:40.506Z,5.37
2017-08-20T14:29:07.961Z,6.07
2017-08-20T14:31:35.409Z,4.70
2017-08-20T14:34:02.866Z,3.10
2017-08-20T14:36:30.313Z,2.30
2017-08-20T14:38:57.781Z,3.40
2017-08-20T14:41:25.328Z,5.40
2017-08-20T14:43:52.781Z,3.77
2017-08-20T14:46:20.237Z,4.77
2017-08-20T14:48:47.689Z,7.13
2017-08-20T14:51:15.145Z,5.73
2017-08-20T14:53:42.602Z,6.47
2017-08-20T14:56:10.085Z,5.00
2017-08-20T14:58:37.537Z,2.53
2017-08-20T15:01:04.985Z,4.90
2017-08-20T15:03:32.450Z,4.53
2017-08-20T15:05:59.917Z,3.13
2017-08-20T15:08:27.353Z,3.93
2017-08-20T15:10:54.815Z,4.40
2017-08-20T15:13:22.292Z,8.97
2017-08-20T15:15:49.842Z,4.97
2017-08-20T15:18:17.285Z,3.63
2017-08-20T15:20:44.745Z,4.97
2017-08-20T15:23:12.201Z,2.87
2017-08-20T15:25:39.662Z,4.10
2017-08-20T15:28:07.221Z,3.80
2017-08-20T15:30:34.705Z,3.13
2017-08-20T15:33:02.929Z,4.50
2017-08-20T15:35:31.586Z,9.50
2017-08-20T15:37:59.483Z,5.90
2017-08-20T15:40:26.938Z,4.07
2017-08-20T15:42:54.399Z,2.50
2017-08-20T15:45:21.942Z,1.83
2017-08-20T15:47:49.441Z,3.00
2017-08-20T15:50:18.488Z,3.40
2017-08-20T15:52:45.929Z,2.50
2017-08-20T15:55:13.389Z,3.07
2017-08-20T15:57:40.845Z,3.27
2017-08-20T16:00:08.305Z,5.47
2017-08-20T16:02:35.826Z,6.90
2017-08-20T16:05:03.289Z,3.20
2017-08-20T16:07:31.533Z,4.00
2017-08-20T16:09:59.008Z,4.90
2017-08-20T16:12:26.479Z,5.53
2017-08-20T16:14:56.541Z,7.07
2017-08-20T16:17:23.969Z,4.40
2017-08-20T16:19:51.490Z,3.60
2017-08-20T16:22:18.950Z,2.63
2017-08-20T16:24:46.535Z,3.40
2017-08-20T16:27:14.781Z,5.30
2017-08-20T16:29:42.341Z,5.13
2017-08-20T16:32:09.798Z,3.63
2017-08-20T16:34:37.362Z,5.97
2017-08-20T16:37:04.909Z,1.63
2017-08-20T16:39:32.362Z,2.70
2017-08-20T16:41:59.846Z,4.30
2017-08-20T16:44:27.281Z,2.70
2017-08-20T16:46:54.837Z,6.90
2017-08-20T16:49:22.302Z,2.77
2017-08-20T16:51:49.766Z,3.10
2017-08-20T16:54:18.437Z,3.27
2017-08-20T16:56:45.918Z,4.33
2017-08-20T16:59:14.171Z,3.80
2017-08-20T17:01:41.630Z,3.27
2017-08-20T17:04:09.093Z,2.13
2017-08-20T17:06:36.566Z,1.47
2017-08-20T17:09:04.019Z,3.10
2017-08-20T17:11:31.493Z,1.93
2017-08-20T17:13:58.945Z,3.10
2017-08-20T17:16:27.198Z,3.20
2017-08-20T17:18:54.657Z,7.17
2017-08-20T17:21:22.111Z,2.73
2017-08-20T17:23:54.440Z,6.03
2017-08-20T17:26:21.881Z,4.87
2017-08-20T17:28:50.723Z,4.20
2017-08-20T17:31:18.173Z,2.93
2017-08-20T17:33:45.630Z,3.80
2017-08-20T17:36:13.084Z,2.50
2017-08-20T17:38:40.554Z,3.77
2017-08-20T17:41:09.796Z,3.50
2017-08-20T17:43:37.245Z,3.17
2017-08-20T17:46:04.774Z,4.60
2017-08-20T17:48:32.850Z,7.30
2017-08-20T17:51:00.398Z,2.40
2017-08-20T17:53:27.861Z,3.33
2017-08-20T17:55:56.080Z,4.50
2017-08-20T17:58:23.578Z,2.83
2017-08-20T18:00:51.037Z,4.10
2017-08-20T18:03:18.600Z,3.07
2017-08-20T18:05:46.058Z,3.23
2017-08-20T18:08:13.514Z,2.27
2017-08-20T18:10:40.969Z,3.33
2017-08-20T18:13:08.445Z,2.50
2017-08-20T18:15:36.690Z,3.63
2017-08-20T18:18:04.137Z,3.73
2017-08-20T18:20:31.601Z,2.80
2017-08-20T18:22:59.062Z,3.37
2017-08-20T18:25:26.557Z,3.33
2017-08-20T18:27:54.014Z,2.73
2017-08-20T18:30:22.237Z,2.30
2017-08-20T18:32:49.703Z,4.83
2017-08-20T18:35:19.316Z,4.00
2017-08-20T18:37:46.793Z,3.77
2017-08-20T18:40:14.253Z,2.53
2017-08-20T18:42:42.506Z,5.23
2017-08-20T18:45:09.969Z,5.53
2017-08-20T18:47:37.741Z,9.23
2017-08-20T18:50:05.282Z,5.57
2017-08-20T18:52:32.743Z,8.40
2017-08-20T18:55:00.198Z,3.90
2017-08-20T18:57:27.759Z,5.80
2017-08-20T18:59:55.222Z,6.60
2017-08-20T19:02:22.673Z,4.37
2017-08-20T19:04:50.261Z,7.40
2017-08-20T19:07:18.637Z,11.07
2017-08-20T19:09:46.893Z,15.90
2017-08-20T19:12:14.752Z,13.87
2017-08-20T19:14:44.325Z,22.80
2017-08-20T19:17:12.582Z,25.70
2017-08-20T19:19:40.042Z,64.77
2017-08-20T19:22:10.287Z,42.37
2017-08-20T19:24:37.743Z,33.67
2017-08-20T19:27:06.245Z,22.23
2017-08-20T19:29:34.104Z,35.83
2017-08-20T19:32:04.442Z,19.20
2017-08-20T19:34:31.922Z,20.83
2017-08-20T19:36:59.390Z,11.73
2017-08-20T19:39:26.847Z,9.73
2017-08-20T19:41:56.089Z,4.80
2017-08-20T19:44:24.580Z,15.47
2017-08-20T19:46:54.445Z,25.83
2017-08-20T19:49:23.441Z,5.97
2017-08-20T19:51:50.931Z,13.57
2017-08-20T19:54:18.389Z,12.60
2017-08-20T19:56:45.846Z,15.90
2017-08-20T19:59:13.305Z,17.43
2017-08-20T20:01:40.758Z,12.20
2017-08-20T20:04:08.229Z,6.63
2017-08-20T20:06:35.688Z,7.10
2017-08-20T20:09:03.246Z,18.30
2017-08-20T20:11:30.702Z,22.37
2017-08-20T20:13:58.161Z,13.97
2017-08-20T20:16:26.281Z,11.97
2017-08-20T20:18:53.736Z,11.87
2017-08-20T20:21:21.197Z,9.27
2017-08-20T20:23:48.662Z,13.03
2017-08-20T20:26:23.348Z,12.10
2017-08-20T20:28:51.578Z,16.20
2017-08-20T20:31:19.025Z,8.50
2017-08-20T20:33:46.482Z,6.57
2017-08-20T20:36:13.965Z,4.23
2017-08-20T20:38:41.422Z,9.47
2017-08-20T20:41:08.874Z,5.20
2017-08-20T20:43:36.330Z,8.40
2017-08-20T20:46:03.782Z,7.40
2017-08-20T20:48:31.241Z,6.63
2017-08-20T20:50:58.689Z,6.30
2017-08-20T20:53:26.162Z,4.57
2017-08-20T20:55:53.718Z,3.83
2017-08-20T20:58:21.198Z,6.87
2017-08-20T21:00:49.424Z,4.90
2017-08-20T21:03:16.886Z,4.40
2017-08-20T21:05:44.349Z,5.23
2017-08-20T21:08:11.802Z,9.27
2017-08-20T21:10:39.256Z,3.50
2017-08-20T21:13:06.717Z,4.33
2017-08-20T21:15:34.173Z,4.47
2017-08-20T21:18:01.634Z,3.13
2017-08-20T21:20:29.115Z,4.17
2017-08-20T21:22:56.566Z,7.53
2017-08-20T21:25:24.874Z,5.93
2017-08-20T21:27:53.081Z,7.10
2017-08-20T21:30:20.576Z,4.20
2017-08-20T21:32:48.021Z,5.23
2017-08-20T21:35:15.477Z,5.17
2017-08-20T21:37:43.042Z,4.33
2017-08-20T21:40:10.597Z,4.00
2017-08-20T21:42:38.154Z,3.83
2017-08-20T21:45:10.301Z,4.50
2017-08-20T21:47:37.759Z,6.33
2017-08-20T21:50:05.236Z,4.00
2017-08-20T21:52:32.690Z,5.33
2017-08-20T21:55:00.142Z,4.53
2017-08-20T21:57:27.597Z,7.30
2017-08-20T22:03:13.878Z,6.37
2017-08-20T22:05:41.330Z,5.50
2017-08-20T22:08:08.778Z,5.77
2017-08-20T22:10:36.229Z,8.27
2017-08-20T22:13:03.677Z,5.57
2017-08-20T22:15:31.133Z,5.50
2017-08-20T22:17:58.581Z,6.73
2017-08-20T22:20:26.049Z,9.23
2017-08-20T22:22:53.498Z,6.63
2017-08-20T22:25:20.955Z,7.37
2017-08-20T22:27:48.408Z,6.27
2017-08-20T22:30:15.890Z,3.20
2017-08-20T22:32:43.337Z,6.33
2017-08-20T22:35:10.786Z,3.20
2017-08-20T22:37:38.309Z,2.80
2017-08-20T22:40:05.869Z,9.70
2017-08-20T22:42:33.339Z,7.37
2017-08-20T22:45:00.800Z,5.57
2017-08-20T22:47:28.274Z,4.43
2017-08-20T22:49:55.736Z,3.73
2017-08-20T22:52:23.253Z,4.63
2017-08-20T22:54:50.706Z,3.97
2017-08-20T22:57:18.168Z,6.27
2017-08-20T22:59:45.728Z,3.10
2017-08-20T23:02:13.199Z,3.73
2017-08-20T23:04:40.744Z,3.23
2017-08-20T23:07:08.205Z,4.33
2017-08-20T23:09:35.666Z,4.10
2017-08-20T23:12:03.120Z,6.40
2017-08-20T23:14:30.578Z,3.83
2017-08-20T23:16:58.034Z,4.30
2017-08-20T23:19:25.489Z,4.50
2017-08-20T23:21:52.946Z,6.07
2017-08-20T23:24:20.407Z,5.97
2017-08-20T23:26:47.949Z,5.60
2017-08-20T23:29:15.410Z,5.30
2017-08-20T23:31:42.866Z,3.60
2017-08-20T23:34:10.321Z,3.60
2017-08-20T23:36:37.779Z,4.70
2017-08-20T23:39:05.237Z,5.50
2017-08-20T23:41:32.698Z,5.90
2017-08-20T23:44:00.153Z,5.00
2017-08-20T23:46:27.717Z,5.37
2017-08-20T23:48:55.174Z,6.40
2017-08-20T23:51:22.634Z,6.60
2017-08-20T23:53:50.097Z,4.67
2017-08-20T23:56:17.541Z,5.30
2017-08-20T23:58:45.005Z,3.40
